Time;durP1;ratioP1;P1;durP2;ratioP2;P2;SDS_P1;SDS_P2;PMS_P1;PMS_P2;Temp;Humidity;BMP_temperature;BMP_pressure;BME280_temperature;BME280_humidity;BME280_pressure;Samples;Min_cycle;Max_cycle;Signal;HPM_P1;HPM_P2
2022/03/16 00:00:52;;;;;;;79.45;46.20;;;;;;;;;;5062204;28;20064;-78
2022/03/16 00:03:19;;;;;;;68.93;43.53;;;;;;;;;;5047812;28;20032;-78
2022/03/16 00:05:45;;;;;;;76.40;45.13;;;;;;;;;;5055974;28;20041;-78
2022/03/16 00:08:12;;;;;;;79.38;48.08;;;;;;;;;;5047264;28;20025;-78
2022/03/16 00:10:38;;;;;;;83.53;50.28;;;;;;;;;;5067417;28;20039;-78
2022/03/16 00:13:04;;;;;;;87.43;50.45;;;;;;;;;;5053542;28;20086;-78
2022/03/16 00:15:30;;;;;;;82.75;50.85;;;;;;;;;;5049151;28;20071;-78
2022/03/16 00:17:56;;;;;;;84.70;50.70;;;;;;;;;;5051741;28;20021;-77
2022/03/16 00:20:22;;;;;;;82.53;49.03;;;;;;;;;;5064596;28;20471;-78
2022/03/16 00:22:48;;;;;;;69.78;44.33;;;;;;;;;;5061434;28;20043;-77
2022/03/16 00:25:14;;;;;;;60.63;38.53;;;;;;;;;;5054064;28;20035;-78
2022/03/16 00:27:41;;;;;;;71.30;42.75;;;;;;;;;;5053914;28;20027;-78
2022/03/16 00:30:07;;;;;;;70.93;44.28;;;;;;;;;;5057739;28;20021;-78
2022/03/16 00:32:33;;;;;;;64.68;41.15;;;;;;;;;;5054628;28;20024;-78
2022/03/16 00:34:59;;;;;;;68.72;43.05;;;;;;;;;;5055459;28;20040;-79
2022/03/16 00:37:27;;;;;;;62.47;42.72;;;;;;;;;;5053158;28;20036;-78
2022/03/16 00:39:53;;;;;;;63.08;41.80;;;;;;;;;;5052800;28;20040;-78
2022/03/16 00:42:19;;;;;;;76.95;46.42;;;;;;;;;;5037805;28;20040;-78
2022/03/16 00:44:45;;;;;;;66.18;42.58;;;;;;;;;;5057315;28;20108;-78
2022/03/16 00:47:11;;;;;;;76.45;45.20;;;;;;;;;;5051880;28;20033;-78
2022/03/16 00:49:37;;;;;;;79.50;46.90;;;;;;;;;;5054982;28;20051;-78
2022/03/16 00:52:03;;;;;;;80.95;48.78;;;;;;;;;;5053602;28;20036;-78
2022/03/16 00:54:29;;;;;;;83.38;49.97;;;;;;;;;;5053456;28;20033;-78
2022/03/16 00:56:55;;;;;;;101.28;52.22;;;;;;;;;;5052010;28;20108;-78
2022/03/16 00:59:21;;;;;;;88.15;51.92;;;;;;;;;;5058864;28;20551;-78
2022/03/16 01:01:47;;;;;;;86.60;52.20;;;;;;;;;;5060939;28;20428;-79
2022/03/16 01:04:13;;;;;;;82.78;50.30;;;;;;;;;;5057350;28;20029;-78
2022/03/16 01:06:39;;;;;;;84.22;49.40;;;;;;;;;;5068529;28;20124;-78
2022/03/16 01:09:05;;;;;;;95.10;52.47;;;;;;;;;;5057036;28;20040;-78
2022/03/16 01:11:32;;;;;;;107.47;55.90;;;;;;;;;;5059299;28;20107;-78
2022/03/16 01:13:58;;;;;;;116.20;59.22;;;;;;;;;;5053323;28;20367;-77
2022/03/16 01:16:24;;;;;;;123.85;62.20;;;;;;;;;;5051171;28;20029;-77
2022/03/16 01:18:50;;;;;;;144.32;67.47;;;;;;;;;;5058110;28;20123;-78
2022/03/16 01:21:17;;;;;;;152.45;73.50;;;;;;;;;;5064166;28;20083;-78
2022/03/16 01:23:43;;;;;;;133.20;69.43;;;;;;;;;;5052283;28;20448;-78
2022/03/16 01:26:09;;;;;;;132.48;68.05;;;;;;;;;;5064257;28;20066;-78
2022/03/16 01:28:35;;;;;;;134.20;66.97;;;;;;;;;;5053799;28;20399;-79
2022/03/16 01:31:01;;;;;;;126.15;64.05;;;;;;;;;;5061341;28;20483;-78
2022/03/16 01:33:28;;;;;;;124.80;63.55;;;;;;;;;;5052760;28;20025;-79
2022/03/16 01:35:54;;;;;;;128.18;63.67;;;;;;;;;;5057988;28;20032;-78
2022/03/16 01:38:20;;;;;;;129.02;65.35;;;;;;;;;;5055196;28;20025;-77
2022/03/16 01:40:46;;;;;;;131.30;64.78;;;;;;;;;;5057611;28;20028;-79
2022/03/16 01:43:12;;;;;;;143.68;69.05;;;;;;;;;;5034432;28;20039;-78
2022/03/16 01:45:44;;;;;;;156.68;70.97;;;;;;;;;;5064313;28;20430;-78
2022/03/16 01:48:10;;;;;;;156.77;70.35;;;;;;;;;;5050160;28;20123;-78
2022/03/16 01:50:36;;;;;;;158.35;71.97;;;;;;;;;;5055132;28;20120;-78
2022/03/16 01:53:02;;;;;;;169.18;73.55;;;;;;;;;;5053063;28;20389;-78
2022/03/16 01:55:28;;;;;;;158.52;73.15;;;;;;;;;;5056808;28;20024;-78
2022/03/16 01:57:54;;;;;;;148.20;68.32;;;;;;;;;;5060866;28;20344;-78
2022/03/16 02:00:20;;;;;;;155.57;72.88;;;;;;;;;;5061228;28;20033;-79
2022/03/16 02:02:46;;;;;;;170.98;75.60;;;;;;;;;;5060230;28;20063;-79
2022/03/16 02:05:12;;;;;;;153.13;69.78;;;;;;;;;;5054123;28;20051;-79
2022/03/16 02:07:38;;;;;;;154.43;71.32;;;;;;;;;;5054061;28;20494;-78
2022/03/16 02:10:05;;;;;;;153.93;67.97;;;;;;;;;;5057901;28;20025;-79
2022/03/16 02:12:41;;;;;;;162.48;71.63;;;;;;;;;;5041570;28;20117;-77
2022/03/16 02:15:08;;;;;;;154.10;70.22;;;;;;;;;;5052387;28;20545;-78
2022/03/16 02:17:34;;;;;;;164.70;69.18;;;;;;;;;;5061900;28;20120;-79
2022/03/16 02:20:00;;;;;;;171.88;71.15;;;;;;;;;;5045579;28;20064;-79
2022/03/16 02:22:26;;;;;;;182.15;76.63;;;;;;;;;;5057288;28;20486;-79
2022/03/16 02:24:52;;;;;;;174.93;74.75;;;;;;;;;;5046229;28;20128;-77
2022/03/16 02:27:18;;;;;;;204.32;81.38;;;;;;;;;;5056255;28;20044;-78
2022/03/16 02:29:44;;;;;;;190.50;77.80;;;;;;;;;;5045371;28;20020;-78
2022/03/16 02:32:10;;;;;;;200.27;77.72;;;;;;;;;;5042347;28;20494;-78
2022/03/16 02:34:36;;;;;;;210.88;83.35;;;;;;;;;;5059010;28;20040;-78
2022/03/16 02:37:02;;;;;;;202.63;81.25;;;;;;;;;;5054247;28;20005;-77
2022/03/16 02:39:28;;;;;;;206.82;81.47;;;;;;;;;;5049121;28;20458;-77
2022/03/16 02:41:54;;;;;;;214.18;82.50;;;;;;;;;;5055363;28;20033;-78
2022/03/16 02:44:20;;;;;;;206.98;82.28;;;;;;;;;;5052204;28;20503;-78
2022/03/16 02:46:47;;;;;;;221.93;84.55;;;;;;;;;;5058242;28;20049;-77
2022/03/16 02:49:13;;;;;;;227.80;86.35;;;;;;;;;;5055127;28;20436;-76
2022/03/16 02:51:39;;;;;;;245.73;88.70;;;;;;;;;;5059957;28;20035;-78
2022/03/16 02:54:06;;;;;;;243.95;89.75;;;;;;;;;;5058188;28;20024;-78
2022/03/16 02:56:32;;;;;;;241.88;89.95;;;;;;;;;;5059677;28;20033;-75
2022/03/16 02:58:58;;;;;;;231.13;87.90;;;;;;;;;;5041377;28;20040;-78
2022/03/16 03:01:24;;;;;;;234.00;84.82;;;;;;;;;;5052819;28;20083;-78
2022/03/16 03:03:50;;;;;;;237.93;86.53;;;;;;;;;;5050247;28;20469;-78
2022/03/16 03:06:16;;;;;;;233.45;85.07;;;;;;;;;;5056133;28;20124;-78
2022/03/16 03:08:43;;;;;;;236.32;83.47;;;;;;;;;;5050833;28;20033;-78
2022/03/16 03:11:09;;;;;;;231.88;84.57;;;;;;;;;;5040439;28;20025;-78
2022/03/16 03:13:35;;;;;;;237.45;84.63;;;;;;;;;;5063582;28;20597;-77
2022/03/16 03:16:01;;;;;;;214.63;79.05;;;;;;;;;;5059476;28;20082;-78
2022/03/16 03:18:27;;;;;;;222.63;80.22;;;;;;;;;;5049959;28;20048;-78
2022/03/16 03:20:53;;;;;;;202.75;76.05;;;;;;;;;;5054779;28;20410;-78
2022/03/16 03:23:19;;;;;;;207.20;75.10;;;;;;;;;;5063184;28;20064;-78
2022/03/16 03:25:45;;;;;;;232.55;80.78;;;;;;;;;;5064218;28;20508;-76
2022/03/16 03:28:11;;;;;;;225.30;79.65;;;;;;;;;;5056741;28;20029;-77
2022/03/16 03:30:38;;;;;;;220.90;80.30;;;;;;;;;;5052660;28;20108;-77
2022/03/16 03:33:04;;;;;;;216.50;79.32;;;;;;;;;;5036373;28;20030;-78
2022/03/16 03:35:30;;;;;;;232.50;85.07;;;;;;;;;;5047413;28;20033;-78
2022/03/16 03:37:56;;;;;;;245.23;84.55;;;;;;;;;;5042099;28;20087;-78
2022/03/16 03:40:22;;;;;;;237.52;85.15;;;;;;;;;;5046083;28;20039;-78
2022/03/16 03:42:48;;;;;;;215.82;85.15;;;;;;;;;;5041773;28;20037;-78
2022/03/16 03:45:14;;;;;;;218.25;82.22;;;;;;;;;;5044529;28;20025;-78
2022/03/16 03:47:40;;;;;;;248.75;86.88;;;;;;;;;;5024698;28;20025;-79
2022/03/16 03:50:06;;;;;;;245.15;86.45;;;;;;;;;;5042181;28;20046;-78
2022/03/16 03:52:32;;;;;;;253.63;89.10;;;;;;;;;;5051988;28;20079;-78
2022/03/16 03:54:58;;;;;;;248.15;89.38;;;;;;;;;;5058923;28;20033;-78
2022/03/16 03:57:24;;;;;;;250.38;88.68;;;;;;;;;;5057998;28;20028;-78
2022/03/16 03:59:50;;;;;;;254.05;89.07;;;;;;;;;;5054686;28;20709;-78
2022/03/16 04:02:16;;;;;;;251.55;90.30;;;;;;;;;;5064546;28;20049;-78
2022/03/16 04:04:42;;;;;;;242.00;90.20;;;;;;;;;;5052507;28;20036;-78
2022/03/16 04:07:08;;;;;;;243.25;90.53;;;;;;;;;;5063332;28;20025;-78
2022/03/16 04:09:34;;;;;;;253.15;91.15;;;;;;;;;;5051174;28;20024;-78
2022/03/16 04:12:00;;;;;;;252.20;87.85;;;;;;;;;;5041774;28;20037;-78
2022/03/16 04:14:26;;;;;;;252.43;90.35;;;;;;;;;;5051446;28;20493;-78
2022/03/16 04:16:52;;;;;;;248.40;92.32;;;;;;;;;;5070619;28;20072;-78
2022/03/16 04:19:19;;;;;;;252.38;90.65;;;;;;;;;;5056665;28;20079;-78
2022/03/16 04:21:45;;;;;;;258.15;91.03;;;;;;;;;;5054131;28;20033;-78
2022/03/16 04:24:11;;;;;;;252.93;91.47;;;;;;;;;;5045688;28;20033;-78
2022/03/16 04:26:37;;;;;;;270.13;94.65;;;;;;;;;;5060359;28;20434;-78
2022/03/16 04:29:03;;;;;;;242.48;88.32;;;;;;;;;;5048899;28;20067;-77
2022/03/16 04:31:29;;;;;;;244.10;89.53;;;;;;;;;;5059149;28;20117;-78
2022/03/16 04:33:57;;;;;;;259.40;94.47;;;;;;;;;;5047748;28;20436;-77
2022/03/16 04:36:23;;;;;;;264.20;92.03;;;;;;;;;;5058256;28;20029;-79
2022/03/16 04:38:50;;;;;;;255.82;90.85;;;;;;;;;;5044534;28;20034;-78
2022/03/16 04:41:16;;;;;;;253.43;88.88;;;;;;;;;;5057678;28;20087;-77
2022/03/16 04:43:42;;;;;;;256.42;91.97;;;;;;;;;;5057213;28;20025;-79
2022/03/16 04:46:08;;;;;;;262.27;88.38;;;;;;;;;;5064392;28;20116;-78
2022/03/16 04:48:34;;;;;;;252.80;88.60;;;;;;;;;;5054763;28;20120;-78
2022/03/16 04:51:01;;;;;;;256.23;90.10;;;;;;;;;;5060397;28;20095;-78
2022/03/16 04:53:26;;;;;;;247.75;89.75;;;;;;;;;;5049746;28;20029;-77
2022/03/16 04:55:52;;;;;;;240.32;87.00;;;;;;;;;;5052401;28;20145;-77
2022/03/16 04:58:18;;;;;;;228.13;84.07;;;;;;;;;;5052333;28;20048;-78
2022/03/16 05:00:44;;;;;;;228.60;86.43;;;;;;;;;;5064587;28;20036;-78
2022/03/16 05:03:11;;;;;;;218.80;81.78;;;;;;;;;;5049216;28;20067;-76
2022/03/16 05:05:37;;;;;;;239.55;86.90;;;;;;;;;;5057680;28;20044;-76
2022/03/16 05:08:03;;;;;;;258.02;88.22;;;;;;;;;;5056726;28;20037;-77
2022/03/16 05:10:29;;;;;;;247.88;91.32;;;;;;;;;;5055005;28;20554;-78
2022/03/16 05:12:55;;;;;;;249.52;88.47;;;;;;;;;;5055542;28;20123;-78
2022/03/16 05:15:22;;;;;;;265.30;91.43;;;;;;;;;;5056000;28;20119;-78
2022/03/16 05:17:48;;;;;;;236.23;89.43;;;;;;;;;;5053255;28;20052;-77
2022/03/16 05:20:14;;;;;;;215.38;82.22;;;;;;;;;;5046716;28;20033;-77
2022/03/16 05:22:44;;;;;;;193.45;83.10;;;;;;;;;;5051356;28;20555;-78
2022/03/16 05:25:14;;;;;;;198.03;81.43;;;;;;;;;;5056401;28;20041;-78
2022/03/16 05:27:41;;;;;;;191.25;75.45;;;;;;;;;;5056346;28;20025;-78
2022/03/16 05:30:08;;;;;;;188.27;77.75;;;;;;;;;;5058059;28;20146;-78
2022/03/16 05:32:34;;;;;;;184.70;75.70;;;;;;;;;;5055365;28;20049;-78
2022/03/16 05:35:00;;;;;;;177.77;73.68;;;;;;;;;;5051805;28;20164;-78
2022/03/16 05:37:26;;;;;;;189.45;74.47;;;;;;;;;;5051216;28;20120;-79
2022/03/16 05:39:53;;;;;;;179.95;70.80;;;;;;;;;;5053836;28;20078;-76
2022/03/16 05:42:19;;;;;;;175.35;70.10;;;;;;;;;;5056734;28;20056;-78
2022/03/16 05:44:45;;;;;;;172.88;70.55;;;;;;;;;;5050819;28;20540;-76
2022/03/16 05:47:14;;;;;;;167.00;69.40;;;;;;;;;;5057602;28;20076;-75
2022/03/16 05:49:40;;;;;;;163.88;70.30;;;;;;;;;;5054185;28;20036;-77
2022/03/16 05:52:06;;;;;;;174.98;70.32;;;;;;;;;;5050063;28;20037;-77
2022/03/16 05:54:33;;;;;;;159.05;69.38;;;;;;;;;;5046426;28;20029;-78
2022/03/16 05:56:59;;;;;;;147.20;65.05;;;;;;;;;;5047062;28;20328;-77
2022/03/16 05:59:25;;;;;;;144.48;66.13;;;;;;;;;;5052316;28;20090;-77
2022/03/16 06:01:51;;;;;;;149.65;65.82;;;;;;;;;;5055073;28;20037;-77
2022/03/16 06:04:17;;;;;;;137.13;62.78;;;;;;;;;;5059844;28;20541;-77
2022/03/16 06:06:43;;;;;;;140.23;64.80;;;;;;;;;;5048907;28;20070;-77
2022/03/16 06:09:09;;;;;;;130.70;62.67;;;;;;;;;;5060033;28;20032;-77
2022/03/16 06:11:36;;;;;;;126.03;61.95;;;;;;;;;;5057387;28;20401;-84
2022/03/16 06:14:02;;;;;;;118.68;58.58;;;;;;;;;;5053511;28;20084;-76
2022/03/16 06:16:28;;;;;;;125.20;58.97;;;;;;;;;;5063395;28;20094;-77
2022/03/16 06:18:54;;;;;;;113.30;54.58;;;;;;;;;;5043525;28;20169;-76
2022/03/16 06:21:20;;;;;;;111.68;53.85;;;;;;;;;;5061352;28;20106;-77
2022/03/16 06:23:47;;;;;;;104.22;52.90;;;;;;;;;;5049964;28;20061;-76
2022/03/16 06:26:13;;;;;;;93.05;50.63;;;;;;;;;;5066504;28;20055;-74
2022/03/16 06:28:39;;;;;;;98.47;50.50;;;;;;;;;;5058212;28;20025;-76
2022/03/16 06:31:05;;;;;;;89.13;48.05;;;;;;;;;;5056925;28;20044;-77
2022/03/16 06:33:31;;;;;;;78.75;44.88;;;;;;;;;;5059450;28;20513;-78
2022/03/16 06:35:57;;;;;;;81.93;43.10;;;;;;;;;;5060309;28;20121;-77
2022/03/16 06:38:23;;;;;;;75.00;42.67;;;;;;;;;;5064916;28;20033;-76
2022/03/16 06:40:49;;;;;;;66.97;37.50;;;;;;;;;;5061747;28;20064;-77
2022/03/16 06:43:15;;;;;;;62.33;36.35;;;;;;;;;;5069573;28;20017;-77
2022/03/16 06:45:41;;;;;;;56.70;33.70;;;;;;;;;;5058681;28;20120;-77
2022/03/16 06:48:07;;;;;;;52.75;31.33;;;;;;;;;;5051894;28;20059;-77
2022/03/16 06:50:33;;;;;;;49.42;29.48;;;;;;;;;;5045794;28;20515;-76
2022/03/16 06:52:59;;;;;;;49.70;30.17;;;;;;;;;;5050215;28;20055;-79
2022/03/16 06:55:26;;;;;;;49.10;28.95;;;;;;;;;;5060911;28;20025;-77
2022/03/16 06:57:53;;;;;;;40.83;25.75;;;;;;;;;;5062418;28;20040;-76
2022/03/16 07:00:19;;;;;;;40.58;25.27;;;;;;;;;;5052964;28;20203;-76
2022/03/16 07:02:53;;;;;;;42.67;25.48;;;;;;;;;;5056133;28;20076;-76
2022/03/16 07:05:19;;;;;;;40.20;24.80;;;;;;;;;;5047720;28;20032;-76
2022/03/16 07:07:45;;;;;;;42.25;24.25;;;;;;;;;;5051104;28;20033;-77
2022/03/16 07:10:11;;;;;;;39.92;24.88;;;;;;;;;;5048208;28;20493;-76
2022/03/16 07:12:37;;;;;;;39.65;23.90;;;;;;;;;;5050419;28;20033;-75
2022/03/16 07:15:03;;;;;;;39.55;22.67;;;;;;;;;;5061580;28;20175;-76
2022/03/16 07:17:29;;;;;;;39.33;23.38;;;;;;;;;;5070011;28;20396;-76
2022/03/16 07:19:55;;;;;;;41.22;23.90;;;;;;;;;;5054740;28;20094;-77
2022/03/16 07:22:21;;;;;;;39.53;24.73;;;;;;;;;;5048997;28;20481;-76
2022/03/16 07:24:47;;;;;;;39.53;24.45;;;;;;;;;;5047240;28;20025;-77
2022/03/16 07:27:14;;;;;;;35.50;23.33;;;;;;;;;;5062477;28;20162;-76
2022/03/16 07:29:42;;;;;;;35.05;22.50;;;;;;;;;;5053356;28;20063;-77
2022/03/16 07:32:08;;;;;;;38.13;21.70;;;;;;;;;;5050850;28;20037;-77
2022/03/16 07:34:35;;;;;;;39.15;20.70;;;;;;;;;;5054646;28;20041;-78
2022/03/16 07:37:01;;;;;;;34.13;21.40;;;;;;;;;;5065884;28;20028;-79
2022/03/16 07:39:27;;;;;;;31.65;20.58;;;;;;;;;;5055320;28;20029;-77
2022/03/16 07:41:53;;;;;;;37.38;21.25;;;;;;;;;;5062134;28;20043;-77
2022/03/16 07:44:19;;;;;;;31.63;20.50;;;;;;;;;;5054450;28;20032;-76
2022/03/16 07:46:45;;;;;;;32.08;19.13;;;;;;;;;;5053287;28;20044;-77
2022/03/16 07:49:11;;;;;;;34.63;19.33;;;;;;;;;;5057589;28;20025;-76
2022/03/16 07:51:37;;;;;;;34.13;20.98;;;;;;;;;;5064618;28;20143;-76
2022/03/16 07:54:03;;;;;;;32.38;18.80;;;;;;;;;;5060884;28;20121;-75
2022/03/16 07:56:29;;;;;;;28.73;19.15;;;;;;;;;;5052753;28;20044;-78
2022/03/16 07:58:58;;;;;;;26.08;17.05;;;;;;;;;;5053754;28;20394;-76
2022/03/16 08:01:24;;;;;;;28.58;18.30;;;;;;;;;;5053267;28;20112;-76
2022/03/16 08:03:50;;;;;;;31.10;20.33;;;;;;;;;;5073140;28;20031;-75
2022/03/16 08:06:16;;;;;;;28.63;18.17;;;;;;;;;;5047628;28;20455;-75
2022/03/16 08:08:43;;;;;;;31.33;19.25;;;;;;;;;;5054645;28;20025;-76
2022/03/16 08:11:09;;;;;;;29.25;19.05;;;;;;;;;;5036875;28;20028;-74
2022/03/16 08:13:36;;;;;;;24.65;16.48;;;;;;;;;;5059689;28;20079;-72
2022/03/16 08:16:03;;;;;;;24.80;16.15;;;;;;;;;;5054865;28;20247;-77
2022/03/16 08:18:29;;;;;;;24.05;16.15;;;;;;;;;;5054805;28;20037;-79
2022/03/16 08:20:56;;;;;;;25.35;15.98;;;;;;;;;;5055892;28;20055;-78
2022/03/16 08:23:22;;;;;;;24.80;15.15;;;;;;;;;;5048437;28;20030;-77
2022/03/16 08:25:48;;;;;;;27.17;15.82;;;;;;;;;;5056995;28;20029;-79
2022/03/16 08:28:14;;;;;;;26.48;14.88;;;;;;;;;;5047692;28;20036;-78
2022/03/16 08:30:41;;;;;;;23.58;14.45;;;;;;;;;;5047933;28;20037;-77
2022/03/16 08:33:07;;;;;;;23.08;13.68;;;;;;;;;;5054736;28;20025;-78
2022/03/16 08:35:33;;;;;;;23.00;14.40;;;;;;;;;;5053466;28;20410;-77
2022/03/16 08:37:59;;;;;;;23.73;14.25;;;;;;;;;;5046041;28;20505;-77
2022/03/16 08:40:25;;;;;;;21.33;13.68;;;;;;;;;;5033227;28;20037;-77
2022/03/16 08:42:52;;;;;;;21.00;13.48;;;;;;;;;;5030899;28;20040;-78
2022/03/16 08:45:19;;;;;;;23.90;14.07;;;;;;;;;;5032033;28;20021;-77
2022/03/16 08:47:45;;;;;;;26.00;12.30;;;;;;;;;;5032240;28;20033;-78
2022/03/16 08:50:12;;;;;;;22.23;12.75;;;;;;;;;;5031155;28;20084;-78
2022/03/16 08:52:38;;;;;;;20.92;13.02;;;;;;;;;;5031388;28;20041;-78
2022/03/16 08:55:05;;;;;;;21.38;12.90;;;;;;;;;;5034817;28;20036;-76
2022/03/16 08:57:31;;;;;;;21.73;12.23;;;;;;;;;;5032819;28;20034;-79
2022/03/16 08:59:57;;;;;;;23.35;12.20;;;;;;;;;;5032604;28;20033;-78
2022/03/16 09:02:23;;;;;;;22.70;12.60;;;;;;;;;;5030824;28;20030;-78
2022/03/16 09:04:50;;;;;;;16.98;10.50;;;;;;;;;;5031344;28;20045;-78
2022/03/16 09:07:17;;;;;;;16.83;11.65;;;;;;;;;;5031355;28;20025;-77
2022/03/16 09:09:43;;;;;;;16.42;11.05;;;;;;;;;;5030029;28;20033;-77
2022/03/16 09:12:11;;;;;;;20.50;12.07;;;;;;;;;;5030962;28;20022;-78
2022/03/16 09:14:37;;;;;;;16.42;10.18;;;;;;;;;;5030992;28;20049;-79
2022/03/16 09:17:03;;;;;;;19.85;10.73;;;;;;;;;;5042915;28;20039;-78
2022/03/16 09:19:29;;;;;;;13.82;9.93;;;;;;;;;;5062123;28;20037;-78
2022/03/16 09:21:55;;;;;;;15.32;9.50;;;;;;;;;;5050998;28;20090;-78
2022/03/16 09:24:24;;;;;;;13.07;9.23;;;;;;;;;;5051459;28;20086;-77
2022/03/16 09:26:50;;;;;;;15.68;10.15;;;;;;;;;;5036679;28;20129;-77
2022/03/16 09:29:18;;;;;;;17.48;9.30;;;;;;;;;;5030873;28;20025;-77
2022/03/16 09:31:44;;;;;;;15.00;10.13;;;;;;;;;;5030626;28;20075;-78
2022/03/16 09:34:10;;;;;;;17.23;10.13;;;;;;;;;;5029289;28;20056;-76
2022/03/16 09:36:37;;;;;;;17.00;9.88;;;;;;;;;;5029243;28;20025;-77
2022/03/16 09:39:03;;;;;;;20.58;10.95;;;;;;;;;;5043441;28;20033;-77
2022/03/16 09:41:29;;;;;;;16.23;10.68;;;;;;;;;;5039768;28;20029;-79
2022/03/16 09:43:56;;;;;;;16.05;10.13;;;;;;;;;;5030669;28;20086;-77
2022/03/16 09:46:26;;;;;;;15.02;10.00;;;;;;;;;;5030419;28;20029;-77
2022/03/16 09:48:52;;;;;;;15.63;10.97;;;;;;;;;;5029778;28;20100;-77
2022/03/16 09:51:19;;;;;;;17.92;11.48;;;;;;;;;;5028340;28;20120;-77
2022/03/16 09:53:45;;;;;;;16.40;10.55;;;;;;;;;;5028740;28;20044;-77
2022/03/16 09:56:12;;;;;;;20.00;10.68;;;;;;;;;;5029678;28;20029;-77
2022/03/16 09:58:38;;;;;;;17.40;10.73;;;;;;;;;;5029441;28;20033;-77
2022/03/16 10:01:07;;;;;;;16.13;10.30;;;;;;;;;;5038261;28;20052;-78
2022/03/16 10:03:35;;;;;;;16.02;10.85;;;;;;;;;;5050031;28;20051;-77
2022/03/16 10:06:01;;;;;;;15.95;9.73;;;;;;;;;;5049819;28;20189;-78
2022/03/16 10:08:37;;;;;;;16.30;10.02;;;;;;;;;;5048345;28;20112;-77
2022/03/16 10:13:59;;;;;;;21.58;11.18;;;;;;;;;;5029845;28;20037;-75
2022/03/16 10:16:25;;;;;;;16.80;10.45;;;;;;;;;;5045362;28;20033;-76
2022/03/16 10:18:55;;;;;;;19.13;11.40;;;;;;;;;;5045319;28;20040;-77
2022/03/16 10:21:22;;;;;;;14.57;10.88;;;;;;;;;;5030746;28;20029;-76
2022/03/16 10:23:48;;;;;;;15.32;10.43;;;;;;;;;;5041140;28;20033;-76
2022/03/16 10:26:19;;;;;;;14.27;9.68;;;;;;;;;;5049007;28;20029;-76
2022/03/16 10:28:48;;;;;;;16.83;10.35;;;;;;;;;;5051075;28;20021;-75
2022/03/16 10:31:17;;;;;;;15.02;10.15;;;;;;;;;;5046107;28;20026;-78
2022/03/16 10:33:50;;;;;;;13.85;9.95;;;;;;;;;;5032488;28;20032;-77
2022/03/16 10:36:17;;;;;;;16.60;10.77;;;;;;;;;;5039872;28;20081;-77
2022/03/16 10:38:46;;;;;;;18.85;11.93;;;;;;;;;;5031703;28;20056;-77
2022/03/16 10:41:14;;;;;;;15.57;10.20;;;;;;;;;;5032828;28;20022;-77
2022/03/16 10:46:34;;;;;;;21.10;11.00;;;;;;;;;;5032426;28;20080;-76
2022/03/16 10:49:09;;;;;;;19.17;10.75;;;;;;;;;;5029681;28;20037;-76
2022/03/16 10:51:36;;;;;;;15.00;9.70;;;;;;;;;;5032143;28;20037;-76
2022/03/16 10:54:03;;;;;;;17.50;10.95;;;;;;;;;;5046024;28;20112;-76
2022/03/16 10:56:30;;;;;;;18.52;11.18;;;;;;;;;;5051294;28;20138;-77
2022/03/16 10:58:57;;;;;;;14.10;10.35;;;;;;;;;;5050115;28;20025;-76
2022/03/16 11:01:24;;;;;;;15.85;10.45;;;;;;;;;;5052256;28;20494;-77
2022/03/16 11:03:50;;;;;;;15.65;10.15;;;;;;;;;;5050422;28;20029;-76
2022/03/16 11:06:20;;;;;;;13.77;9.52;;;;;;;;;;5047166;28;20199;-76
2022/03/16 11:08:47;;;;;;;13.48;10.05;;;;;;;;;;5035453;28;20021;-77
2022/03/16 11:13:57;;;;;;;18.90;10.50;;;;;;;;;;5034884;28;20044;-75
2022/03/16 11:16:25;;;;;;;15.80;10.23;;;;;;;;;;5041269;28;20036;-76
2022/03/16 11:18:51;;;;;;;16.10;10.63;;;;;;;;;;5053535;28;20028;-76
2022/03/16 11:21:22;;;;;;;19.02;11.02;;;;;;;;;;5054242;28;20454;-75
2022/03/16 11:26:34;;;;;;;18.35;11.77;;;;;;;;;;5053428;28;20043;-76
2022/03/16 11:29:00;;;;;;;15.43;10.75;;;;;;;;;;5040191;28;20409;-76
2022/03/16 11:31:30;;;;;;;14.90;11.07;;;;;;;;;;5034346;28;20045;-77
2022/03/16 11:33:58;;;;;;;20.20;12.13;;;;;;;;;;5034818;28;20033;-77
2022/03/16 11:36:31;;;;;;;16.27;10.77;;;;;;;;;;5035522;28;20274;-77
2022/03/16 11:38:58;;;;;;;16.38;12.07;;;;;;;;;;5034810;28;20367;-76
2022/03/16 11:41:26;;;;;;;16.40;11.55;;;;;;;;;;5032650;28;20072;-77
2022/03/16 11:44:10;;;;;;;15.88;11.95;;;;;;;;;;5033580;28;20029;-76
2022/03/16 11:46:39;;;;;;;18.95;11.75;;;;;;;;;;5034550;28;20083;-76
2022/03/16 11:49:05;;;;;;;16.48;10.55;;;;;;;;;;5034768;28;20071;-77
2022/03/16 11:51:32;;;;;;;17.25;11.23;;;;;;;;;;5034679;28;20058;-78
2022/03/16 11:54:01;;;;;;;19.77;11.98;;;;;;;;;;5040048;28;20073;-76
2022/03/16 11:56:36;;;;;;;16.92;11.15;;;;;;;;;;5041816;28;20038;-76
2022/03/16 11:59:23;;;;;;;20.33;10.75;;;;;;;;;;5033874;28;20025;-76
2022/03/16 12:01:52;;;;;;;16.25;11.05;;;;;;;;;;5046994;28;20041;-76
2022/03/16 12:04:31;;;;;;;21.17;10.88;;;;;;;;;;5040836;28;20045;-75
2022/03/16 12:07:02;;;;;;;16.38;10.73;;;;;;;;;;5033085;28;20060;-76
2022/03/16 12:09:40;;;;;;;15.15;10.48;;;;;;;;;;5034740;28;20055;-76
2022/03/16 12:15:19;;;;;;;14.10;10.90;;;;;;;;;;5034991;28;20371;-76
2022/03/16 12:17:51;;;;;;;22.50;12.57;;;;;;;;;;5033516;28;20041;-76
2022/03/16 12:20:24;;;;;;;15.18;11.48;;;;;;;;;;5033067;28;20018;-75
2022/03/16 12:22:51;;;;;;;19.13;11.48;;;;;;;;;;5032723;28;20064;-75
2022/03/16 12:25:26;;;;;;;16.75;11.43;;;;;;;;;;5032012;28;20102;-75
2022/03/16 12:30:43;;;;;;;17.50;11.43;;;;;;;;;;5052220;28;20070;-76
2022/03/16 12:33:16;;;;;;;18.40;12.25;;;;;;;;;;5052187;28;20025;-75
2022/03/16 12:35:43;;;;;;;15.68;11.95;;;;;;;;;;5050094;28;20373;-77
2022/03/16 12:38:11;;;;;;;18.75;13.10;;;;;;;;;;5045380;28;20083;-76
2022/03/16 12:43:28;;;;;;;17.85;13.27;;;;;;;;;;5032011;28;20121;-75
2022/03/16 12:46:02;;;;;;;18.85;12.02;;;;;;;;;;5031634;28;20029;-77
2022/03/16 12:48:33;;;;;;;18.38;12.75;;;;;;;;;;5031529;28;20025;-76
2022/03/16 12:51:00;;;;;;;18.90;13.35;;;;;;;;;;5039217;28;20039;-76
2022/03/16 12:53:33;;;;;;;17.98;12.77;;;;;;;;;;5051549;28;20045;-76
2022/03/16 12:55:59;;;;;;;25.13;14.20;;;;;;;;;;5050128;28;20037;-75
2022/03/16 12:58:27;;;;;;;18.38;14.45;;;;;;;;;;5051686;28;20452;-77
2022/03/16 13:00:59;;;;;;;20.85;13.82;;;;;;;;;;5049733;28;20453;-75
2022/03/16 13:03:25;;;;;;;20.42;14.35;;;;;;;;;;5049703;28;20083;-76
2022/03/16 13:05:52;;;;;;;20.50;14.13;;;;;;;;;;5052086;28;20033;-76
2022/03/16 13:08:19;;;;;;;23.75;14.27;;;;;;;;;;5052701;28;20029;-76
2022/03/16 13:13:30;;;;;;;19.02;13.93;;;;;;;;;;5063382;28;20174;-76
2022/03/16 13:16:00;;;;;;;23.10;15.23;;;;;;;;;;5039963;28;20031;-75
2022/03/16 13:18:33;;;;;;;22.52;15.38;;;;;;;;;;5048808;28;20037;-76
2022/03/16 13:20:59;;;;;;;21.27;14.98;;;;;;;;;;5050257;28;20025;-77
2022/03/16 13:23:32;;;;;;;29.05;15.75;;;;;;;;;;5048795;28;20052;-76
2022/03/16 13:26:06;;;;;;;20.67;14.75;;;;;;;;;;5072658;28;20055;-77
2022/03/16 13:28:32;;;;;;;34.50;15.45;;;;;;;;;;5038589;28;20014;-76
2022/03/16 13:30:58;;;;;;;29.25;14.13;;;;;;;;;;5034024;28;20029;-74
2022/03/16 13:33:27;;;;;;;23.92;14.35;;;;;;;;;;5031408;28;20083;-74
2022/03/16 13:36:08;;;;;;;24.33;14.88;;;;;;;;;;5032669;28;20029;-76
2022/03/16 13:38:37;;;;;;;22.48;14.32;;;;;;;;;;5031087;28;20608;-76
2022/03/16 13:41:16;;;;;;;21.15;15.25;;;;;;;;;;5031766;28;20367;-76
2022/03/16 13:43:42;;;;;;;24.42;15.38;;;;;;;;;;5040632;28;20504;-75
2022/03/16 13:46:14;;;;;;;23.63;15.68;;;;;;;;;;5039571;28;20049;-74
2022/03/16 13:48:41;;;;;;;23.63;14.93;;;;;;;;;;5032754;28;20017;-75
2022/03/16 13:51:08;;;;;;;21.42;15.32;;;;;;;;;;5036568;28;20049;-75
2022/03/16 13:53:47;;;;;;;34.28;14.85;;;;;;;;;;5062368;28;20040;-75
2022/03/16 13:56:17;;;;;;;22.90;15.25;;;;;;;;;;5033655;28;20527;-75
2022/03/16 13:58:43;;;;;;;26.20;13.43;;;;;;;;;;5031777;28;20044;-74
2022/03/16 14:01:09;;;;;;;22.52;15.02;;;;;;;;;;5037043;28;20025;-76
2022/03/16 14:03:35;;;;;;;18.40;13.88;;;;;;;;;;5035580;28;20044;-75
2022/03/16 14:06:11;;;;;;;22.70;14.40;;;;;;;;;;5030141;28;20030;-76
2022/03/16 14:08:38;;;;;;;27.75;14.57;;;;;;;;;;5031445;28;20014;-75
2022/03/16 14:11:04;;;;;;;22.92;14.35;;;;;;;;;;5029208;28;20097;-76
2022/03/16 14:13:37;;;;;;;20.75;13.82;;;;;;;;;;5030362;28;20104;-75
2022/03/16 14:16:10;;;;;;;19.35;14.13;;;;;;;;;;5029051;28;20065;-76
2022/03/16 14:18:36;;;;;;;19.25;14.70;;;;;;;;;;5040511;28;20045;-75
2022/03/16 14:21:03;;;;;;;21.73;13.75;;;;;;;;;;5048794;28;20029;-76
2022/03/16 14:23:30;;;;;;;18.52;12.55;;;;;;;;;;5050917;28;20486;-75
2022/03/16 14:25:58;;;;;;;17.75;13.10;;;;;;;;;;5041932;28;20104;-75
2022/03/16 14:28:24;;;;;;;19.40;12.90;;;;;;;;;;5041015;28;20049;-75
2022/03/16 14:30:52;;;;;;;27.75;13.32;;;;;;;;;;5030512;28;20032;-75
2022/03/16 14:33:23;;;;;;;23.95;13.13;;;;;;;;;;5049403;28;20079;-75
2022/03/16 14:35:50;;;;;;;20.02;12.60;;;;;;;;;;5049666;28;20040;-75